createdAt,value
2022-09-24T00:01:48.778Z,11.60
2022-09-24T00:04:18.818Z,11.70
2022-09-24T00:06:48.938Z,11.70
2022-09-24T00:09:19.013Z,11.70
2022-09-24T00:11:47.024Z,11.70
2022-09-24T00:14:15.002Z,11.70
2022-09-24T00:16:44.426Z,11.80
2022-09-24T00:19:13.706Z,11.80
2022-09-24T00:21:44.202Z,11.80
2022-09-24T00:24:35.694Z,11.80
2022-09-24T00:27:04.137Z,11.70
2022-09-24T00:29:34.106Z,11.70
2022-09-24T00:32:03.514Z,11.70
2022-09-24T00:34:31.478Z,11.70
2022-09-24T00:37:01.122Z,11.70
2022-09-24T00:39:29.205Z,11.60
2022-09-24T00:41:57.100Z,11.60
2022-09-24T00:44:49.824Z,11.50
2022-09-24T00:47:27.603Z,11.50
2022-09-24T00:50:11.715Z,11.40
2022-09-24T00:52:44.625Z,11.40
2022-09-24T00:55:14.434Z,11.40
2022-09-24T00:57:44.187Z,11.40
2022-09-24T01:00:13.563Z,11.40
2022-09-24T01:02:45.616Z,11.40
2022-09-24T01:05:13.625Z,11.40
2022-09-24T01:07:42.920Z,11.40
2022-09-24T01:10:11.723Z,11.30
2022-09-24T01:12:47.878Z,11.20
2022-09-24T01:15:23.288Z,11.20
2022-09-24T01:17:59.486Z,11.10
2022-09-24T01:21:01.344Z,11.00
2022-09-24T01:23:49.365Z,11.10
2022-09-24T01:26:33.216Z,11.10
2022-09-24T01:29:20.989Z,11.00
2022-09-24T01:31:54.917Z,11.00
2022-09-24T01:34:30.107Z,11.00
2022-09-24T01:37:00.116Z,11.10
2022-09-24T01:39:29.071Z,11.10
2022-09-24T01:41:57.285Z,11.10
2022-09-24T01:44:27.193Z,11.10
2022-09-24T01:46:55.821Z,11.10
2022-09-24T01:49:23.907Z,11.10
2022-09-24T01:51:55.758Z,11.10
2022-09-24T01:54:28.388Z,11.10
2022-09-24T01:57:03.052Z,11.10
2022-09-24T01:59:37.727Z,11.10
2022-09-24T02:02:10.127Z,11.10
2022-09-24T02:04:43.607Z,11.10
2022-09-24T02:07:16.063Z,11.10
2022-09-24T02:09:45.013Z,11.10
2022-09-24T02:12:17.729Z,11.00
2022-09-24T02:14:51.400Z,11.00
2022-09-24T02:17:19.971Z,10.90
2022-09-24T02:19:49.103Z,10.90
2022-09-24T02:22:19.125Z,10.90
2022-09-24T02:24:50.856Z,10.80
2022-09-24T02:27:19.710Z,10.90
2022-09-24T02:29:49.269Z,11.00
2022-09-24T02:32:20.889Z,11.00
2022-09-24T02:34:55.062Z,11.10
2022-09-24T02:37:25.122Z,11.10
2022-09-24T02:39:53.063Z,11.00
2022-09-24T02:42:21.833Z,10.90
2022-09-24T02:44:52.274Z,10.90
2022-09-24T02:47:20.131Z,11.00
2022-09-24T02:49:48.361Z,11.10
2022-09-24T02:52:16.238Z,11.20
2022-09-24T02:54:44.315Z,11.20
2022-09-24T02:57:12.369Z,11.10
2022-09-24T02:59:40.617Z,11.10
2022-09-24T03:02:09.964Z,11.10
2022-09-24T03:04:37.983Z,11.10
2022-09-24T03:07:06.272Z,11.00
2022-09-24T03:09:34.154Z,11.00
2022-09-24T03:12:02.574Z,11.00
2022-09-24T03:14:30.477Z,10.90
2022-09-24T03:16:58.372Z,10.90
2022-09-24T03:19:27.588Z,10.90
2022-09-24T03:21:55.503Z,11.00
2022-09-24T03:24:23.456Z,11.00
2022-09-24T03:26:51.491Z,11.10
2022-09-24T03:29:40.082Z,11.10
2022-09-24T03:32:06.978Z,11.10
2022-09-24T03:34:36.220Z,11.00
2022-09-24T03:37:04.168Z,11.10
2022-09-24T03:39:32.022Z,11.10
2022-09-24T03:41:59.885Z,11.10
2022-09-24T03:44:28.541Z,11.10
2022-09-24T03:46:56.954Z,11.00
2022-09-24T03:49:25.767Z,11.00
2022-09-24T03:51:54.981Z,11.00
2022-09-24T03:54:22.946Z,11.00
2022-09-24T03:56:50.828Z,11.10
2022-09-24T03:59:18.681Z,11.10
2022-09-24T04:01:46.703Z,11.10
2022-09-24T04:04:16.298Z,11.20
2022-09-24T04:06:44.671Z,11.20
2022-09-24T04:09:13.931Z,11.30
2022-09-24T04:11:42.707Z,11.20
2022-09-24T04:14:10.577Z,11.30
2022-09-24T04:16:38.501Z,11.30
2022-09-24T04:19:08.077Z,11.30
2022-09-24T04:21:36.027Z,11.30
2022-09-24T04:24:04.161Z,11.30
2022-09-24T04:26:33.368Z,11.50
2022-09-24T04:29:01.272Z,11.50
2022-09-24T04:31:29.203Z,11.60
2022-09-24T04:33:57.268Z,11.70
2022-09-24T04:36:25.653Z,11.70
2022-09-24T04:38:53.543Z,11.80
2022-09-24T04:41:21.400Z,11.80
2022-09-24T04:43:51.285Z,11.70
2022-09-24T04:46:19.897Z,11.80
2022-09-24T04:48:47.838Z,11.70
2022-09-24T04:51:16.700Z,11.70
2022-09-24T04:53:47.773Z,11.70
2022-09-24T04:56:15.649Z,11.70
2022-09-24T04:58:43.444Z,11.80
2022-09-24T05:01:13.360Z,11.70
2022-09-24T05:03:41.372Z,11.60
2022-09-24T05:06:09.237Z,11.50
2022-09-24T05:08:37.130Z,11.50
2022-09-24T05:11:05.265Z,11.40
2022-09-24T05:13:33.182Z,11.40
2022-09-24T05:16:01.358Z,11.50
2022-09-24T05:18:30.696Z,11.50
2022-09-24T05:20:58.535Z,11.50
2022-09-24T05:23:26.485Z,11.50
2022-09-24T05:26:11.730Z,11.40
2022-09-24T05:28:40.239Z,11.40
2022-09-24T05:31:09.065Z,11.40
2022-09-24T05:33:38.337Z,11.50
2022-09-24T05:36:06.591Z,11.50
2022-09-24T05:38:34.523Z,11.50
2022-09-24T05:41:03.688Z,11.50
2022-09-24T05:43:31.787Z,11.50
2022-09-24T05:45:59.790Z,11.50
2022-09-24T05:48:28.297Z,11.50
2022-09-24T05:50:57.866Z,11.60
2022-09-24T05:53:25.727Z,11.50
2022-09-24T05:55:53.661Z,11.50
2022-09-24T05:58:21.698Z,11.50
2022-09-24T06:00:49.833Z,11.50
2022-09-24T06:03:19.590Z,11.50
2022-09-24T06:05:49.556Z,11.50
2022-09-24T06:08:20.820Z,11.50
2022-09-24T06:10:48.977Z,11.60
2022-09-24T06:13:19.608Z,11.70
2022-09-24T06:15:47.705Z,11.80
2022-09-24T06:18:15.761Z,11.80
2022-09-24T06:20:44.429Z,11.90
2022-09-24T06:23:13.684Z,11.90
2022-09-24T06:25:43.300Z,12.00
2022-09-24T06:28:11.328Z,12.00
2022-09-24T06:30:39.950Z,12.00
2022-09-24T06:33:10.114Z,12.00
2022-09-24T06:35:39.173Z,12.00
2022-09-24T06:38:09.714Z,12.10
2022-09-24T06:40:38.006Z,12.10
2022-09-24T06:43:07.696Z,12.30
2022-09-24T06:45:36.840Z,12.30
2022-09-24T06:48:06.866Z,12.40
2022-09-24T06:50:36.492Z,12.50
2022-09-24T06:53:07.433Z,12.50
2022-09-24T06:55:36.275Z,12.60
2022-09-24T06:58:08.200Z,12.60
2022-09-24T07:00:38.648Z,12.70
2022-09-24T07:03:07.093Z,12.70
2022-09-24T07:05:39.675Z,12.80
2022-09-24T07:08:10.585Z,12.80
2022-09-24T07:10:39.665Z,13.00
2022-09-24T07:13:09.224Z,13.10
2022-09-24T07:15:37.114Z,13.20
2022-09-24T07:18:05.090Z,13.20
2022-09-24T07:20:36.995Z,13.20
2022-09-24T07:23:05.570Z,13.20
2022-09-24T07:25:34.986Z,13.30
2022-09-24T07:28:04.748Z,13.50
2022-09-24T07:30:36.822Z,13.60
2022-09-24T07:33:06.027Z,13.60
2022-09-24T07:35:34.451Z,13.70
2022-09-24T07:38:04.789Z,13.80
2022-09-24T07:40:33.874Z,13.90
2022-09-24T07:43:02.618Z,14.00
2022-09-24T07:45:32.402Z,14.20
2022-09-24T07:48:03.749Z,14.20
2022-09-24T07:50:33.849Z,14.20
2022-09-24T07:53:01.854Z,14.30
2022-09-24T07:55:30.298Z,14.30
2022-09-24T07:57:58.373Z,14.40
2022-09-24T08:00:27.061Z,14.40
2022-09-24T08:02:56.464Z,14.50
2022-09-24T08:05:26.136Z,14.50
2022-09-24T08:07:55.175Z,14.60
2022-09-24T08:10:23.391Z,14.60
2022-09-24T08:12:52.153Z,14.70
2022-09-24T08:15:22.612Z,14.80
2022-09-24T08:17:50.662Z,14.90
2022-09-24T08:20:19.117Z,15.00
2022-09-24T08:22:48.562Z,15.00
2022-09-24T08:25:19.302Z,15.10
2022-09-24T08:27:47.326Z,15.20
2022-09-24T08:30:15.777Z,15.30
2022-09-24T08:32:48.218Z,15.30
2022-09-24T08:35:16.365Z,15.30
2022-09-24T08:37:44.308Z,15.40
2022-09-24T08:40:18.678Z,15.40
2022-09-24T08:42:54.524Z,15.40
2022-09-24T08:45:39.905Z,15.50
2022-09-24T08:48:13.700Z,15.70
2022-09-24T08:50:49.005Z,15.90
2022-09-24T08:53:23.625Z,16.20
2022-09-24T08:55:55.143Z,16.40
2022-09-24T08:58:44.363Z,16.60
2022-09-24T09:01:23.670Z,16.70
2022-09-24T09:03:58.055Z,16.80
2022-09-24T09:06:50.695Z,16.90
2022-09-24T09:09:21.433Z,17.00
2022-09-24T09:11:59.433Z,17.10
2022-09-24T09:14:42.674Z,17.10
2022-09-24T09:17:20.116Z,17.10
2022-09-24T09:19:54.925Z,17.20
2022-09-24T09:22:26.034Z,17.30
2022-09-24T09:24:58.657Z,17.50
2022-09-24T09:27:32.828Z,17.50
2022-09-24T09:30:10.402Z,17.50
2022-09-24T09:33:03.487Z,17.20
2022-09-24T09:35:38.923Z,17.10
2022-09-24T09:38:19.282Z,16.90
2022-09-24T09:40:52.033Z,16.90
2022-09-24T09:43:21.744Z,17.00
2022-09-24T09:46:00.677Z,16.80
2022-09-24T09:48:36.839Z,16.70
2022-09-24T09:51:07.617Z,16.70
2022-09-24T09:53:35.734Z,16.80
2022-09-24T09:56:06.483Z,16.70
2022-09-24T09:58:37.641Z,16.50
2022-09-24T10:01:09.114Z,16.40
2022-09-24T10:03:49.606Z,16.30
2022-09-24T10:06:26.100Z,16.10
2022-09-24T10:08:54.270Z,16.10
2022-09-24T10:11:24.220Z,16.10
2022-09-24T10:14:05.874Z,16.10
2022-09-24T10:16:39.306Z,16.10
2022-09-24T10:19:20.606Z,16.10
2022-09-24T10:21:49.575Z,16.10
2022-09-24T10:24:20.252Z,16.10
2022-09-24T10:26:49.377Z,16.20
2022-09-24T10:29:38.161Z,16.20
2022-09-24T10:32:07.996Z,16.30
2022-09-24T10:34:35.981Z,16.30
2022-09-24T10:37:14.978Z,16.30
2022-09-24T10:39:43.279Z,16.30
2022-09-24T10:42:24.849Z,16.40
2022-09-24T10:44:55.184Z,16.40
2022-09-24T10:47:28.326Z,16.40
2022-09-24T10:50:20.271Z,16.50
2022-09-24T10:52:52.064Z,16.50
2022-09-24T10:55:34.793Z,16.50
2022-09-24T10:58:07.304Z,16.70
2022-09-24T11:00:52.349Z,16.80
2022-09-24T11:03:42.776Z,17.00
2022-09-24T11:06:19.124Z,17.30
2022-09-24T11:09:09.691Z,17.60
2022-09-24T11:11:50.945Z,17.70
2022-09-24T11:14:32.131Z,18.00
2022-09-24T11:17:30.969Z,18.00
2022-09-24T11:20:26.683Z,18.00
2022-09-24T11:23:23.079Z,17.90
2022-09-24T11:26:00.418Z,17.60
2022-09-24T11:28:58.981Z,17.50
2022-09-24T11:31:34.868Z,17.50
2022-09-24T11:34:16.364Z,17.30
2022-09-24T11:36:59.615Z,17.20
2022-09-24T11:39:41.218Z,17.10
2022-09-24T11:42:21.043Z,17.10
2022-09-24T11:45:06.793Z,17.10
2022-09-24T11:47:49.298Z,17.10
2022-09-24T11:50:32.316Z,17.20
2022-09-24T11:53:06.407Z,17.20
2022-09-24T11:55:37.667Z,17.30
2022-09-24T11:58:15.229Z,17.30
2022-09-24T12:00:47.576Z,17.40
2022-09-24T12:03:23.735Z,17.40
2022-09-24T12:06:02.196Z,17.40
2022-09-24T12:08:38.154Z,17.40
2022-09-24T12:11:12.237Z,17.40
2022-09-24T12:13:49.130Z,17.30
2022-09-24T12:16:21.922Z,17.30
2022-09-24T12:18:55.687Z,17.20
2022-09-24T12:21:28.895Z,17.20
2022-09-24T12:24:15.751Z,17.20
2022-09-24T12:26:49.404Z,17.10
2022-09-24T12:29:54.720Z,16.90
2022-09-24T12:32:46.414Z,16.80
2022-09-24T12:35:23.057Z,16.60
2022-09-24T12:37:57.066Z,16.50
2022-09-24T12:40:50.820Z,16.30
2022-09-24T12:43:26.628Z,16.20
2022-09-24T12:45:57.326Z,16.10
2022-09-24T12:48:27.534Z,16.10
2022-09-24T12:51:00.678Z,16.10
2022-09-24T12:53:35.810Z,16.20
2022-09-24T12:56:06.406Z,16.20
2022-09-24T12:58:40.626Z,16.30
2022-09-24T13:01:14.872Z,16.30
2022-09-24T13:03:47.217Z,16.30
2022-09-24T13:06:24.724Z,16.40
2022-09-24T13:08:54.005Z,16.50
2022-09-24T13:11:31.766Z,16.50
2022-09-24T13:14:18.088Z,16.60
2022-09-24T13:16:49.972Z,16.50
2022-09-24T13:19:31.147Z,16.60
2022-09-24T13:22:00.685Z,16.70
2022-09-24T13:24:32.104Z,16.60
2022-09-24T13:27:11.361Z,16.60
2022-09-24T13:29:40.919Z,16.50
2022-09-24T13:32:19.641Z,16.40
2022-09-24T13:34:50.523Z,16.50
2022-09-24T13:37:23.980Z,16.50
2022-09-24T13:39:59.161Z,16.50
2022-09-24T13:42:34.496Z,16.60
2022-09-24T13:45:09.758Z,16.70
2022-09-24T13:47:42.545Z,16.80
2022-09-24T13:50:17.244Z,16.80
2022-09-24T13:52:48.863Z,16.90
2022-09-24T13:55:22.590Z,17.00
2022-09-24T13:57:50.506Z,17.10
2022-09-24T14:00:21.340Z,17.10
2022-09-24T14:02:59.283Z,17.00
2022-09-24T14:05:28.906Z,17.00
2022-09-24T14:08:01.730Z,17.00
2022-09-24T14:10:31.207Z,17.10
2022-09-24T14:13:21.724Z,17.20
2022-09-24T14:15:54.734Z,17.30
2022-09-24T14:18:23.453Z,17.40
2022-09-24T14:20:56.264Z,17.40
2022-09-24T14:23:28.105Z,17.30
2022-09-24T14:25:59.165Z,17.20
2022-09-24T14:28:29.531Z,17.20
2022-09-24T14:30:57.652Z,17.20
2022-09-24T14:33:29.315Z,17.10
2022-09-24T14:36:00.853Z,17.10
2022-09-24T14:38:31.339Z,17.20
2022-09-24T14:41:04.808Z,17.10
2022-09-24T14:43:43.406Z,17.20
2022-09-24T14:46:18.327Z,17.20
2022-09-24T14:48:46.363Z,17.30
2022-09-24T14:51:28.676Z,17.30
2022-09-24T14:54:01.690Z,17.40
2022-09-24T14:56:32.521Z,17.40
2022-09-24T14:59:01.447Z,17.30
2022-09-24T15:01:33.017Z,17.30
2022-09-24T15:04:03.460Z,17.20
2022-09-24T15:06:33.278Z,17.20
2022-09-24T15:09:03.459Z,17.10
2022-09-24T15:11:35.065Z,17.10
2022-09-24T15:14:15.050Z,17.00
2022-09-24T15:16:43.684Z,17.10
2022-09-24T15:19:22.191Z,17.20
2022-09-24T15:21:51.415Z,17.30
2022-09-24T15:24:20.543Z,17.30
2022-09-24T15:27:01.361Z,17.30
2022-09-24T15:29:29.296Z,17.40
2022-09-24T15:31:58.901Z,17.40
2022-09-24T15:34:27.376Z,17.30
2022-09-24T15:36:59.068Z,17.30
2022-09-24T15:39:27.718Z,17.20
2022-09-24T15:41:57.380Z,17.30
2022-09-24T15:44:33.670Z,17.30
2022-09-24T15:47:01.993Z,17.30
2022-09-24T15:49:29.953Z,17.30
2022-09-24T15:52:02.651Z,17.20
2022-09-24T15:54:30.631Z,17.00
2022-09-24T15:57:00.664Z,16.90
2022-09-24T15:59:28.884Z,16.90
2022-09-24T16:02:00.689Z,16.90
2022-09-24T16:04:28.683Z,16.90
2022-09-24T16:06:56.629Z,16.90
2022-09-24T16:09:24.622Z,16.90
2022-09-24T16:11:52.515Z,16.80
2022-09-24T16:14:22.214Z,16.80
2022-09-24T16:16:50.084Z,16.70
2022-09-24T16:19:18.095Z,16.80
2022-09-24T16:21:45.993Z,16.80
2022-09-24T16:24:13.918Z,16.80
2022-09-24T16:26:42.004Z,16.70
2022-09-24T16:29:12.092Z,16.60
2022-09-24T16:31:41.548Z,16.50
2022-09-24T16:34:10.268Z,16.50
2022-09-24T16:36:39.150Z,16.40
2022-09-24T16:39:07.850Z,16.30
2022-09-24T16:41:38.012Z,16.20
2022-09-24T16:44:07.406Z,16.20
2022-09-24T16:46:35.946Z,16.20
2022-09-24T16:49:06.131Z,16.10
2022-09-24T16:51:34.839Z,16.10
2022-09-24T16:54:04.100Z,16.00
2022-09-24T16:56:32.994Z,15.90
2022-09-24T16:59:01.407Z,15.90
2022-09-24T17:01:29.818Z,15.80
2022-09-24T17:03:59.151Z,15.80
2022-09-24T17:06:30.177Z,15.80
2022-09-24T17:09:15.801Z,15.90
2022-09-24T17:11:46.680Z,15.80
2022-09-24T17:14:15.234Z,15.80
2022-09-24T17:16:43.947Z,15.70
2022-09-24T17:19:13.078Z,15.70
2022-09-24T17:21:45.983Z,15.60
2022-09-24T17:24:17.855Z,15.60
2022-09-24T17:26:49.379Z,15.60
2022-09-24T17:29:20.421Z,15.50
2022-09-24T17:31:48.386Z,15.50
2022-09-24T17:34:16.348Z,15.50
2022-09-24T17:36:45.736Z,15.50
2022-09-24T17:39:14.125Z,15.50
2022-09-24T17:41:42.322Z,15.50
2022-09-24T17:44:12.319Z,15.50
2022-09-24T17:46:40.375Z,15.60
2022-09-24T17:49:08.825Z,15.70
2022-09-24T17:51:38.000Z,15.70
2022-09-24T17:54:09.041Z,15.70
2022-09-24T17:56:38.784Z,15.70
2022-09-24T17:59:08.150Z,15.60
2022-09-24T18:01:38.053Z,15.60
2022-09-24T18:04:08.079Z,15.50
2022-09-24T18:06:38.269Z,15.20
2022-09-24T18:09:08.565Z,15.10
2022-09-24T18:11:40.994Z,15.00
2022-09-24T18:14:14.397Z,14.90
2022-09-24T18:16:43.020Z,14.80
2022-09-24T18:19:12.852Z,14.80
2022-09-24T18:21:41.012Z,14.80
2022-09-24T18:24:10.868Z,14.80
2022-09-24T18:26:40.174Z,14.70
2022-09-24T18:29:12.867Z,14.80
2022-09-24T18:31:41.204Z,15.00
2022-09-24T18:34:10.792Z,14.90
2022-09-24T18:36:40.997Z,14.80
2022-09-24T18:39:13.283Z,14.70
2022-09-24T18:41:43.314Z,14.60
2022-09-24T18:44:11.377Z,14.70
2022-09-24T18:46:40.018Z,14.60
2022-09-24T18:49:08.229Z,14.50
2022-09-24T18:51:38.128Z,14.50
2022-09-24T18:54:08.086Z,14.50
2022-09-24T18:56:37.422Z,14.50
2022-09-24T18:59:09.666Z,14.40
2022-09-24T19:01:38.937Z,14.40
2022-09-24T19:04:09.816Z,14.40
2022-09-24T19:06:39.538Z,14.40
2022-09-24T19:09:08.059Z,14.30
2022-09-24T19:11:37.462Z,14.20
2022-09-24T19:14:05.396Z,14.20
2022-09-24T19:16:34.096Z,14.20
2022-09-24T19:19:02.616Z,14.20
2022-09-24T19:21:30.946Z,14.10
2022-09-24T19:24:00.674Z,14.10
2022-09-24T19:26:30.370Z,14.10
2022-09-24T19:29:00.341Z,14.00
2022-09-24T19:31:30.580Z,14.00
2022-09-24T19:34:02.801Z,14.00
2022-09-24T19:36:32.582Z,14.10
2022-09-24T19:39:01.429Z,14.10
2022-09-24T19:41:29.512Z,14.10
2022-09-24T19:44:04.597Z,14.10
2022-09-24T19:46:37.020Z,14.10
2022-09-24T19:49:05.801Z,14.10
2022-09-24T19:51:34.837Z,14.10
2022-09-24T19:54:06.435Z,14.10
2022-09-24T19:56:35.457Z,14.10
2022-09-24T19:59:05.550Z,14.10
2022-09-24T20:01:34.736Z,14.10
2022-09-24T20:04:05.867Z,14.10
2022-09-24T20:06:35.214Z,14.10
2022-09-24T20:09:03.933Z,14.10
2022-09-24T20:11:32.619Z,14.10
2022-09-24T20:14:01.732Z,14.10
2022-09-24T20:16:32.497Z,14.10
2022-09-24T20:19:01.118Z,14.10
2022-09-24T20:21:33.749Z,14.10
2022-09-24T20:24:03.639Z,14.00
2022-09-24T20:26:49.336Z,14.00
2022-09-24T20:29:19.491Z,14.00
2022-09-24T20:31:52.628Z,13.90
2022-09-24T20:34:22.115Z,13.90
2022-09-24T20:36:50.591Z,13.80
2022-09-24T20:39:18.922Z,13.80
2022-09-24T20:41:47.029Z,13.80
2022-09-24T20:44:14.961Z,13.80
2022-09-24T20:46:43.308Z,13.80
2022-09-24T20:49:19.222Z,13.90
2022-09-24T20:51:47.112Z,13.90
2022-09-24T20:54:15.154Z,14.00
2022-09-24T20:56:43.259Z,14.00
2022-09-24T20:59:11.230Z,13.90
2022-09-24T21:01:40.076Z,13.90
2022-09-24T21:04:07.942Z,13.90
2022-09-24T21:06:38.167Z,13.90
2022-09-24T21:09:06.160Z,14.00
2022-09-24T21:11:34.292Z,14.10
2022-09-24T21:14:02.999Z,14.10
2022-09-24T21:16:33.565Z,14.00
2022-09-24T21:19:04.662Z,14.00
2022-09-24T21:21:35.269Z,13.90
2022-09-24T21:24:05.752Z,13.80
2022-09-24T21:26:36.186Z,13.80
2022-09-24T21:29:09.077Z,13.70
2022-09-24T21:31:39.059Z,13.60
2022-09-24T21:34:08.081Z,13.60
2022-09-24T21:36:43.619Z,13.50
2022-09-24T21:39:16.680Z,13.50
2022-09-24T21:41:45.688Z,13.50
2022-09-24T21:44:16.044Z,13.50
2022-09-24T21:46:44.412Z,13.50
2022-09-24T21:49:13.064Z,13.60
2022-09-24T21:51:41.789Z,13.60
2022-09-24T21:54:15.435Z,13.50
2022-09-24T21:56:43.736Z,13.50
2022-09-24T21:59:25.825Z,13.60
2022-09-24T22:01:54.234Z,13.60
2022-09-24T22:04:23.022Z,13.70
2022-09-24T22:06:51.214Z,13.60
2022-09-24T22:09:20.952Z,13.60
2022-09-24T22:11:48.813Z,13.50
2022-09-24T22:14:16.757Z,13.50
2022-09-24T22:16:45.144Z,13.50
2022-09-24T22:19:13.139Z,13.50
2022-09-24T22:21:41.425Z,13.60
2022-09-24T22:24:09.327Z,13.50
2022-09-24T22:26:38.716Z,13.50
2022-09-24T22:29:06.876Z,13.50
2022-09-24T22:31:35.418Z,13.50
2022-09-24T22:34:21.031Z,13.50
2022-09-24T22:36:48.925Z,13.50
2022-09-24T22:39:16.805Z,13.40
2022-09-24T22:41:46.435Z,13.50
2022-09-24T22:44:14.480Z,13.40
2022-09-24T22:46:42.468Z,13.40
2022-09-24T22:49:11.259Z,13.40
2022-09-24T22:51:39.479Z,13.40
2022-09-24T22:54:10.080Z,13.50
2022-09-24T22:56:38.504Z,13.40
2022-09-24T22:59:07.890Z,13.40
2022-09-24T23:01:40.292Z,13.30
2022-09-24T23:04:08.603Z,13.30
2022-09-24T23:06:37.211Z,13.30
2022-09-24T23:09:05.752Z,13.30
2022-09-24T23:11:35.770Z,13.30
2022-09-24T23:14:06.181Z,13.30
2022-09-24T23:16:37.500Z,13.40
2022-09-24T23:19:08.399Z,13.40
2022-09-24T23:21:37.117Z,13.50
2022-09-24T23:24:07.990Z,13.40
2022-09-24T23:26:36.724Z,13.40
2022-09-24T23:29:04.615Z,13.40
2022-09-24T23:31:36.936Z,13.30
2022-09-24T23:34:06.913Z,13.30
2022-09-24T23:36:36.203Z,13.30
2022-09-24T23:39:05.029Z,13.20
2022-09-24T23:41:33.266Z,13.20
2022-09-24T23:44:01.796Z,13.10
2022-09-24T23:46:29.775Z,13.10
2022-09-24T23:48:59.049Z,13.00
2022-09-24T23:51:27.164Z,12.90
2022-09-24T23:53:55.117Z,12.90
2022-09-24T23:56:23.102Z,13.00
2022-09-24T23:58:50.967Z,13.00
